sensor_id;sensor_type;location;lat;lon;timestamp;pressure;altitude;pressure_sealevel;temperature;humidity
9415;BME280;4746;35.664;139.738;2023-05-13T00:01:52;100909.81;;;23.33;52.05
9415;BME280;4746;35.664;139.738;2023-05-13T00:04:20;100913.47;;;23.29;52.51
9415;BME280;4746;35.664;139.738;2023-05-13T00:06:48;100911.88;;;23.25;52.60
9415;BME280;4746;35.664;139.738;2023-05-13T00:09:16;100906.63;;;23.25;53.10
9415;BME280;4746;35.664;139.738;2023-05-13T00:11:43;100907.31;;;23.30;53.03
9415;BME280;4746;35.664;139.738;2023-05-13T00:14:11;100909.94;;;23.30;53.19
9415;BME280;4746;35.664;139.738;2023-05-13T00:16:39;100908.31;;;23.26;53.86
9415;BME280;4746;35.664;139.738;2023-05-13T00:19:06;100912.75;;;23.24;54.72
9415;BME280;4746;35.664;139.738;2023-05-13T00:21:34;100918.91;;;23.23;54.74
9415;BME280;4746;35.664;139.738;2023-05-13T00:24:01;100914.69;;;23.19;54.77
9415;BME280;4746;35.664;139.738;2023-05-13T00:26:29;100916.41;;;23.19;54.98
9415;BME280;4746;35.664;139.738;2023-05-13T00:28:56;100927.94;;;23.13;55.35
9415;BME280;4746;35.664;139.738;2023-05-13T00:31:24;100921.28;;;23.04;54.96
9415;BME280;4746;35.664;139.738;2023-05-13T00:33:52;100930.09;;;23.01;55.33
9415;BME280;4746;35.664;139.738;2023-05-13T00:36:19;100919.75;;;22.97;55.53
9415;BME280;4746;35.664;139.738;2023-05-13T00:38:47;100925.09;;;22.94;56.02
9415;BME280;4746;35.664;139.738;2023-05-13T00:41:15;100923.16;;;22.99;55.56
9415;BME280;4746;35.664;139.738;2023-05-13T00:43:43;100922.53;;;22.92;55.78
9415;BME280;4746;35.664;139.738;2023-05-13T00:46:11;100928.78;;;22.87;55.89
9415;BME280;4746;35.664;139.738;2023-05-13T00:48:39;100910.72;;;22.79;56.10
9415;BME280;4746;35.664;139.738;2023-05-13T00:51:08;100913.22;;;22.84;56.02
9415;BME280;4746;35.664;139.738;2023-05-13T00:53:36;100912.16;;;22.89;55.89
9415;BME280;4746;35.664;139.738;2023-05-13T00:56:05;100909.28;;;22.97;56.15
9415;BME280;4746;35.664;139.738;2023-05-13T00:58:34;100917.56;;;23.10;55.37
9415;BME280;4746;35.664;139.738;2023-05-13T01:01:33;100908.63;;;23.17;54.79
9415;BME280;4746;35.664;139.738;2023-05-13T01:12:35;100890.88;;;23.51;55.27
9415;BME280;4746;35.664;139.738;2023-05-13T01:15:11;100889.84;;;23.57;54.46
9415;BME280;4746;35.664;139.738;2023-05-13T01:18:06;100890.72;;;23.56;54.26
9415;BME280;4746;35.664;139.738;2023-05-13T01:20:40;100890.63;;;23.59;54.41
9415;BME280;4746;35.664;139.738;2023-05-13T01:23:12;100884.31;;;23.64;54.79
9415;BME280;4746;35.664;139.738;2023-05-13T01:25:41;100885.72;;;23.74;54.19
9415;BME280;4746;35.664;139.738;2023-05-13T01:28:09;100878.97;;;23.67;54.65
9415;BME280;4746;35.664;139.738;2023-05-13T01:30:37;100893.28;;;23.57;54.24
9415;BME280;4746;35.664;139.738;2023-05-13T01:33:06;100883.09;;;23.50;54.24
9415;BME280;4746;35.664;139.738;2023-05-13T01:35:34;100878.00;;;23.45;54.64
9415;BME280;4746;35.664;139.738;2023-05-13T01:38:03;100878.97;;;23.43;54.26
9415;BME280;4746;35.664;139.738;2023-05-13T01:40:32;100882.50;;;23.42;54.75
9415;BME280;4746;35.664;139.738;2023-05-13T01:43:00;100874.97;;;23.57;54.23
9415;BME280;4746;35.664;139.738;2023-05-13T01:45:29;100880.91;;;23.62;54.15
9415;BME280;4746;35.664;139.738;2023-05-13T01:47:58;100884.59;;;23.57;53.90
9415;BME280;4746;35.664;139.738;2023-05-13T01:50:25;100879.59;;;23.49;54.21
9415;BME280;4746;35.664;139.738;2023-05-13T01:52:53;100881.31;;;23.50;54.62
9415;BME280;4746;35.664;139.738;2023-05-13T01:55:21;100872.34;;;23.57;54.45
9415;BME280;4746;35.664;139.738;2023-05-13T01:57:48;100872.09;;;23.65;53.85
9415;BME280;4746;35.664;139.738;2023-05-13T02:00:16;100864.69;;;23.77;53.67
9415;BME280;4746;35.664;139.738;2023-05-13T02:02:44;100871.94;;;23.69;53.63
9415;BME280;4746;35.664;139.738;2023-05-13T02:05:12;100866.50;;;23.51;54.14
9415;BME280;4746;35.664;139.738;2023-05-13T02:07:40;100871.81;;;23.48;54.12
9415;BME280;4746;35.664;139.738;2023-05-13T02:10:08;100869.28;;;23.46;54.25
9415;BME280;4746;35.664;139.738;2023-05-13T02:12:36;100865.97;;;23.41;53.88
9415;BME280;4746;35.664;139.738;2023-05-13T02:15:03;100878.56;;;23.30;53.88
9415;BME280;4746;35.664;139.738;2023-05-13T02:17:31;100857.44;;;23.10;54.24
9415;BME280;4746;35.664;139.738;2023-05-13T02:19:59;100859.41;;;23.04;54.48
9415;BME280;4746;35.664;139.738;2023-05-13T02:22:26;100848.47;;;22.92;54.73
9415;BME280;4746;35.664;139.738;2023-05-13T02:24:54;100855.31;;;22.96;55.05
9415;BME280;4746;35.664;139.738;2023-05-13T02:27:21;100843.44;;;22.86;55.23
9415;BME280;4746;35.664;139.738;2023-05-13T02:29:49;100846.66;;;22.94;55.16
9415;BME280;4746;35.664;139.738;2023-05-13T02:32:17;100840.94;;;23.08;55.58
9415;BME280;4746;35.664;139.738;2023-05-13T02:34:44;100846.41;;;23.27;55.07
9415;BME280;4746;35.664;139.738;2023-05-13T02:37:12;100835.53;;;23.39;54.39
9415;BME280;4746;35.664;139.738;2023-05-13T02:39:39;100847.31;;;23.50;54.27
9415;BME280;4746;35.664;139.738;2023-05-13T02:42:07;100839.44;;;23.52;53.58
9415;BME280;4746;35.664;139.738;2023-05-13T02:44:34;100835.84;;;23.54;54.05
9415;BME280;4746;35.664;139.738;2023-05-13T02:47:02;100829.59;;;23.58;53.88
9415;BME280;4746;35.664;139.738;2023-05-13T02:49:29;100836.53;;;23.59;54.07
9415;BME280;4746;35.664;139.738;2023-05-13T02:51:59;100830.72;;;23.51;52.85
9415;BME280;4746;35.664;139.738;2023-05-13T02:54:27;100852.28;;;23.33;53.02
9415;BME280;4746;35.664;139.738;2023-05-13T02:56:58;100849.50;;;23.13;53.01
9415;BME280;4746;35.664;139.738;2023-05-13T02:59:25;100852.84;;;22.91;53.38
9415;BME280;4746;35.664;139.738;2023-05-13T03:01:56;100854.38;;;22.71;54.08
9415;BME280;4746;35.664;139.738;2023-05-13T03:04:23;100852.41;;;22.51;53.93
9415;BME280;4746;35.664;139.738;2023-05-13T03:06:51;100852.81;;;22.38;54.36
9415;BME280;4746;35.664;139.738;2023-05-13T03:09:18;100851.22;;;22.34;54.54
9415;BME280;4746;35.664;139.738;2023-05-13T03:11:46;100850.41;;;22.32;54.65
9415;BME280;4746;35.664;139.738;2023-05-13T03:14:14;100844.44;;;22.29;55.13
9415;BME280;4746;35.664;139.738;2023-05-13T03:16:41;100831.56;;;22.21;54.97
9415;BME280;4746;35.664;139.738;2023-05-13T03:19:10;100828.16;;;22.19;55.57
9415;BME280;4746;35.664;139.738;2023-05-13T03:21:38;100833.38;;;22.19;55.97
9415;BME280;4746;35.664;139.738;2023-05-13T03:24:06;100835.09;;;22.20;55.93
9415;BME280;4746;35.664;139.738;2023-05-13T03:26:33;100836.88;;;22.18;56.11
9415;BME280;4746;35.664;139.738;2023-05-13T03:29:01;100829.03;;;22.18;56.36
9415;BME280;4746;35.664;139.738;2023-05-13T03:31:28;100826.31;;;22.21;56.40
9415;BME280;4746;35.664;139.738;2023-05-13T03:33:56;100821.97;;;22.22;56.28
9415;BME280;4746;35.664;139.738;2023-05-13T03:36:24;100823.63;;;22.24;56.39
9415;BME280;4746;35.664;139.738;2023-05-13T03:38:51;100812.28;;;22.25;56.64
9415;BME280;4746;35.664;139.738;2023-05-13T03:41:19;100807.88;;;22.27;56.46
9415;BME280;4746;35.664;139.738;2023-05-13T03:43:46;100806.91;;;22.31;56.96
9415;BME280;4746;35.664;139.738;2023-05-13T03:46:14;100809.22;;;22.40;56.54
9415;BME280;4746;35.664;139.738;2023-05-13T03:48:43;100799.53;;;22.43;56.07
9415;BME280;4746;35.664;139.738;2023-05-13T03:51:10;100791.50;;;22.49;55.87
9415;BME280;4746;35.664;139.738;2023-05-13T03:53:38;100794.75;;;22.57;55.95
9415;BME280;4746;35.664;139.738;2023-05-13T03:56:05;100784.84;;;22.67;55.96
9415;BME280;4746;35.664;139.738;2023-05-13T03:58:33;100798.34;;;22.79;55.41
9415;BME280;4746;35.664;139.738;2023-05-13T04:01:00;100791.53;;;23.01;55.39
9415;BME280;4746;35.664;139.738;2023-05-13T04:03:28;100792.53;;;23.21;54.61
9415;BME280;4746;35.664;139.738;2023-05-13T04:05:57;100783.97;;;23.42;54.13
9415;BME280;4746;35.664;139.738;2023-05-13T04:08:24;100780.91;;;23.54;53.29
9415;BME280;4746;35.664;139.738;2023-05-13T04:10:52;100777.13;;;23.61;53.20
9415;BME280;4746;35.664;139.738;2023-05-13T04:13:21;100778.75;;;23.65;52.89
9415;BME280;4746;35.664;139.738;2023-05-13T04:15:49;100784.63;;;23.72;52.68
9415;BME280;4746;35.664;139.738;2023-05-13T04:18:16;100781.03;;;23.74;52.80
9415;BME280;4746;35.664;139.738;2023-05-13T04:20:44;100775.69;;;23.77;52.46
9415;BME280;4746;35.664;139.738;2023-05-13T04:23:12;100775.81;;;23.74;52.69
9415;BME280;4746;35.664;139.738;2023-05-13T04:25:41;100773.09;;;23.77;52.64
9415;BME280;4746;35.664;139.738;2023-05-13T04:28:09;100774.78;;;23.78;52.32
9415;BME280;4746;35.664;139.738;2023-05-13T04:30:36;100774.78;;;23.78;52.31
9415;BME280;4746;35.664;139.738;2023-05-13T04:33:05;100772.03;;;23.81;52.43
9415;BME280;4746;35.664;139.738;2023-05-13T04:35:32;100761.47;;;23.84;52.57
9415;BME280;4746;35.664;139.738;2023-05-13T04:38:00;100770.09;;;23.86;51.82
9415;BME280;4746;35.664;139.738;2023-05-13T04:40:27;100750.88;;;23.87;52.05
9415;BME280;4746;35.664;139.738;2023-05-13T04:42:55;100752.44;;;23.91;51.71
9415;BME280;4746;35.664;139.738;2023-05-13T04:45:22;100761.09;;;23.93;51.53
9415;BME280;4746;35.664;139.738;2023-05-13T04:47:52;100761.03;;;23.94;51.72
9415;BME280;4746;35.664;139.738;2023-05-13T04:50:19;100755.63;;;23.99;51.56
9415;BME280;4746;35.664;139.738;2023-05-13T04:52:47;100755.50;;;24.02;51.59
9415;BME280;4746;35.664;139.738;2023-05-13T04:55:14;100746.75;;;24.03;51.32
9415;BME280;4746;35.664;139.738;2023-05-13T04:57:42;100737.41;;;23.96;51.13
9415;BME280;4746;35.664;139.738;2023-05-13T05:00:14;100743.44;;;23.98;51.32
9415;BME280;4746;35.664;139.738;2023-05-13T05:02:42;100749.59;;;23.97;51.41
9415;BME280;4746;35.664;139.738;2023-05-13T05:05:10;100726.16;;;23.94;51.40
9415;BME280;4746;35.664;139.738;2023-05-13T05:07:37;100740.03;;;23.96;51.14
9415;BME280;4746;35.664;139.738;2023-05-13T05:10:07;100732.19;;;23.96;50.86
9415;BME280;4746;35.664;139.738;2023-05-13T05:12:35;100732.53;;;23.87;51.09
9415;BME280;4746;35.664;139.738;2023-05-13T05:15:05;100725.06;;;23.78;51.15
9415;BME280;4746;35.664;139.738;2023-05-13T05:17:37;100724.44;;;23.72;51.72
9415;BME280;4746;35.664;139.738;2023-05-13T05:20:08;100724.47;;;23.70;51.98
9415;BME280;4746;35.664;139.738;2023-05-13T05:22:37;100720.25;;;23.66;52.15
9415;BME280;4746;35.664;139.738;2023-05-13T05:25:09;100725.53;;;23.65;52.06
9415;BME280;4746;35.664;139.738;2023-05-13T05:27:37;100729.25;;;23.59;51.98
9415;BME280;4746;35.664;139.738;2023-05-13T05:30:05;100723.22;;;23.57;52.05
9415;BME280;4746;35.664;139.738;2023-05-13T05:32:33;100723.34;;;23.54;52.38
9415;BME280;4746;35.664;139.738;2023-05-13T05:35:01;100706.00;;;23.52;51.96
9415;BME280;4746;35.664;139.738;2023-05-13T05:37:30;100718.03;;;23.56;52.41
9415;BME280;4746;35.664;139.738;2023-05-13T05:39:57;100717.16;;;23.55;52.02
9415;BME280;4746;35.664;139.738;2023-05-13T05:42:25;100726.94;;;23.52;52.06
9415;BME280;4746;35.664;139.738;2023-05-13T05:44:52;100720.00;;;23.49;52.21
9415;BME280;4746;35.664;139.738;2023-05-13T05:47:20;100717.53;;;23.46;52.05
9415;BME280;4746;35.664;139.738;2023-05-13T05:49:47;100725.72;;;23.37;52.35
9415;BME280;4746;35.664;139.738;2023-05-13T05:52:15;100709.31;;;23.32;52.48
9415;BME280;4746;35.664;139.738;2023-05-13T05:54:42;100726.72;;;23.33;52.84
9415;BME280;4746;35.664;139.738;2023-05-13T05:57:09;100715.34;;;23.34;52.87
9415;BME280;4746;35.664;139.738;2023-05-13T05:59:37;100718.81;;;23.35;53.51
9415;BME280;4746;35.664;139.738;2023-05-13T06:02:05;100724.25;;;23.30;53.72
9415;BME280;4746;35.664;139.738;2023-05-13T06:04:33;100716.63;;;23.24;53.61
9415;BME280;4746;35.664;139.738;2023-05-13T06:07:00;100713.09;;;23.25;53.83
9415;BME280;4746;35.664;139.738;2023-05-13T06:09:28;100712.88;;;23.31;53.22
9415;BME280;4746;35.664;139.738;2023-05-13T06:11:55;100710.81;;;23.39;53.47
9415;BME280;4746;35.664;139.738;2023-05-13T06:14:23;100705.28;;;23.47;53.00
9415;BME280;4746;35.664;139.738;2023-05-13T06:16:50;100705.03;;;23.54;53.22
9415;BME280;4746;35.664;139.738;2023-05-13T06:19:18;100705.69;;;23.59;53.00
9415;BME280;4746;35.664;139.738;2023-05-13T06:21:45;100700.22;;;23.65;52.54
9415;BME280;4746;35.664;139.738;2023-05-13T06:24:14;100701.06;;;23.66;52.33
9415;BME280;4746;35.664;139.738;2023-05-13T06:26:46;100709.66;;;23.69;51.98
9415;BME280;4746;35.664;139.738;2023-05-13T06:29:15;100708.72;;;23.72;52.26
9415;BME280;4746;35.664;139.738;2023-05-13T06:31:42;100704.13;;;23.78;51.50
9415;BME280;4746;35.664;139.738;2023-05-13T06:34:13;100699.34;;;23.87;51.29
9415;BME280;4746;35.664;139.738;2023-05-13T06:36:44;100694.63;;;23.97;50.92
9415;BME280;4746;35.664;139.738;2023-05-13T06:39:12;100694.38;;;24.03;51.11
9415;BME280;4746;35.664;139.738;2023-05-13T06:41:40;100688.28;;;24.02;50.38
9415;BME280;4746;35.664;139.738;2023-05-13T06:44:08;100685.84;;;23.98;50.50
9415;BME280;4746;35.664;139.738;2023-05-13T06:46:35;100699.91;;;23.95;50.71
9415;BME280;4746;35.664;139.738;2023-05-13T06:49:03;100700.09;;;23.91;50.22
9415;BME280;4746;35.664;139.738;2023-05-13T06:51:30;100695.09;;;23.85;50.40
9415;BME280;4746;35.664;139.738;2023-05-13T06:54:02;100686.56;;;23.80;50.09
9415;BME280;4746;35.664;139.738;2023-05-13T06:56:30;100690.44;;;23.70;50.09
9415;BME280;4746;35.664;139.738;2023-05-13T06:58:57;100699.66;;;23.80;50.08
9415;BME280;4746;35.664;139.738;2023-05-13T07:01:25;100698.59;;;23.85;49.79
9415;BME280;4746;35.664;139.738;2023-05-13T07:03:53;100689.63;;;23.91;49.67
9415;BME280;4746;35.664;139.738;2023-05-13T07:06:20;100702.38;;;24.00;49.03
9415;BME280;4746;35.664;139.738;2023-05-13T07:08:48;100680.00;;;24.13;47.27
9415;BME280;4746;35.664;139.738;2023-05-13T07:11:16;100684.94;;;24.20;47.17
9415;BME280;4746;35.664;139.738;2023-05-13T07:13:43;100667.34;;;24.24;46.22
9415;BME280;4746;35.664;139.738;2023-05-13T07:16:12;100680.47;;;24.22;45.65
9415;BME280;4746;35.664;139.738;2023-05-13T07:18:40;100682.31;;;24.20;45.85
9415;BME280;4746;35.664;139.738;2023-05-13T07:21:08;100682.31;;;24.20;45.22
9415;BME280;4746;35.664;139.738;2023-05-13T07:23:35;100676.34;;;24.17;45.40
9415;BME280;4746;35.664;139.738;2023-05-13T07:26:03;100681.41;;;24.21;45.26
9415;BME280;4746;35.664;139.738;2023-05-13T07:28:30;100663.91;;;24.22;45.51
9415;BME280;4746;35.664;139.738;2023-05-13T07:30:58;100653.69;;;24.16;45.21
9415;BME280;4746;35.664;139.738;2023-05-13T07:33:26;100682.13;;;24.25;45.76
9415;BME280;4746;35.664;139.738;2023-05-13T07:35:53;100690.25;;;24.19;45.46
9415;BME280;4746;35.664;139.738;2023-05-13T07:38:21;100701.06;;;24.10;45.39
9415;BME280;4746;35.664;139.738;2023-05-13T07:40:49;100692.63;;;24.03;45.38
9415;BME280;4746;35.664;139.738;2023-05-13T07:43:17;100679.28;;;23.88;45.70
9415;BME280;4746;35.664;139.738;2023-05-13T07:45:52;100687.47;;;23.79;46.08
9415;BME280;4746;35.664;139.738;2023-05-13T07:48:20;100673.81;;;23.71;45.96
9415;BME280;4746;35.664;139.738;2023-05-13T07:50:50;100685.06;;;23.75;46.11
9415;BME280;4746;35.664;139.738;2023-05-13T07:53:18;100673.03;;;23.69;45.94
9415;BME280;4746;35.664;139.738;2023-05-13T07:55:46;100678.38;;;23.66;46.36
9415;BME280;4746;35.664;139.738;2023-05-13T07:58:13;100691.56;;;23.63;46.21
9415;BME280;4746;35.664;139.738;2023-05-13T08:00:41;100674.31;;;23.59;46.42
9415;BME280;4746;35.664;139.738;2023-05-13T08:03:08;100681.50;;;23.53;46.73
9415;BME280;4746;35.664;139.738;2023-05-13T08:05:36;100670.19;;;23.52;46.58
9415;BME280;4746;35.664;139.738;2023-05-13T08:08:04;100673.63;;;23.54;46.68
9415;BME280;4746;35.664;139.738;2023-05-13T08:10:31;100680.72;;;23.51;46.72
9415;BME280;4746;35.664;139.738;2023-05-13T08:12:59;100689.34;;;23.53;46.60
9415;BME280;4746;35.664;139.738;2023-05-13T08:15:27;100670.53;;;23.43;47.04
9415;BME280;4746;35.664;139.738;2023-05-13T08:17:55;100680.28;;;23.40;46.48
9415;BME280;4746;35.664;139.738;2023-05-13T08:20:23;100681.19;;;23.39;46.67
9415;BME280;4746;35.664;139.738;2023-05-13T08:22:58;100683.75;;;23.40;46.84
9415;BME280;4746;35.664;139.738;2023-05-13T08:25:27;100684.78;;;23.36;46.78
9415;BME280;4746;35.664;139.738;2023-05-13T08:27:56;100676.13;;;23.34;46.45
9415;BME280;4746;35.664;139.738;2023-05-13T08:30:24;100670.97;;;23.33;47.08
9415;BME280;4746;35.664;139.738;2023-05-13T08:32:51;100675.31;;;23.32;46.94
9415;BME280;4746;35.664;139.738;2023-05-13T08:35:19;100672.84;;;23.29;47.38
9415;BME280;4746;35.664;139.738;2023-05-13T08:37:47;100672.84;;;23.29;47.14
9415;BME280;4746;35.664;139.738;2023-05-13T08:40:15;100689.34;;;23.31;46.71
9415;BME280;4746;35.664;139.738;2023-05-13T08:42:44;100678.06;;;23.29;46.82
9415;BME280;4746;35.664;139.738;2023-05-13T08:45:16;100680.84;;;23.25;46.74
9415;BME280;4746;35.664;139.738;2023-05-13T08:47:59;100678.88;;;23.31;46.51
9415;BME280;4746;35.664;139.738;2023-05-13T08:50:29;100679.03;;;23.27;46.74
9415;BME280;4746;35.664;139.738;2023-05-13T08:52:58;100681.59;;;23.28;46.59
9415;BME280;4746;35.664;139.738;2023-05-13T08:55:28;100671.25;;;23.25;46.64
9415;BME280;4746;35.664;139.738;2023-05-13T08:57:55;100685.22;;;23.24;47.06
9415;BME280;4746;35.664;139.738;2023-05-13T09:00:23;100673.97;;;23.22;46.57
9415;BME280;4746;35.664;139.738;2023-05-13T09:02:51;100676.72;;;23.19;46.65
9415;BME280;4746;35.664;139.738;2023-05-13T09:05:20;100687.16;;;23.19;46.85
9415;BME280;4746;35.664;139.738;2023-05-13T09:07:48;100683.00;;;23.14;47.33
9415;BME280;4746;35.664;139.738;2023-05-13T09:10:20;100671.69;;;23.13;46.68
9415;BME280;4746;35.664;139.738;2023-05-13T09:12:55;100683.16;;;23.09;46.73
9415;BME280;4746;35.664;139.738;2023-05-13T09:15:25;100682.66;;;22.99;47.32
9415;BME280;4746;35.664;139.738;2023-05-13T09:18:05;100676.50;;;23.01;46.83
9415;BME280;4746;35.664;139.738;2023-05-13T09:20:34;100683.00;;;22.90;46.98
9415;BME280;4746;35.664;139.738;2023-05-13T09:23:07;100679.47;;;22.91;47.48
9415;BME280;4746;35.664;139.738;2023-05-13T09:25:36;100693.69;;;22.84;47.31
9415;BME280;4746;35.664;139.738;2023-05-13T09:28:07;100679.72;;;22.85;47.39
9415;BME280;4746;35.664;139.738;2023-05-13T09:30:40;100699.81;;;22.83;47.42
9415;BME280;4746;35.664;139.738;2023-05-13T09:33:10;100690.38;;;22.79;46.82
9415;BME280;4746;35.664;139.738;2023-05-13T09:35:50;100689.63;;;22.75;47.06
9415;BME280;4746;35.664;139.738;2023-05-13T09:38:26;100684.19;;;22.81;46.68
9415;BME280;4746;35.664;139.738;2023-05-13T09:40:57;100680.69;;;22.81;46.69
9415;BME280;4746;35.664;139.738;2023-05-13T09:43:31;100690.59;;;22.73;46.59
9415;BME280;4746;35.664;139.738;2023-05-13T09:46:04;100702.84;;;22.71;46.78
9415;BME280;4746;35.664;139.738;2023-05-13T09:48:34;100711.50;;;22.71;46.80
9415;BME280;4746;35.664;139.738;2023-05-13T09:51:04;100708.22;;;22.66;46.84
9415;BME280;4746;35.664;139.738;2023-05-13T09:53:32;100696.22;;;22.61;46.53
9415;BME280;4746;35.664;139.738;2023-05-13T09:55:59;100697.91;;;22.62;46.75
9415;BME280;4746;35.664;139.738;2023-05-13T09:58:28;100697.97;;;22.60;46.36
9415;BME280;4746;35.664;139.738;2023-05-13T10:00:57;100699.78;;;22.58;46.37
9415;BME280;4746;35.664;139.738;2023-05-13T10:03:26;100708.53;;;22.57;46.54
9415;BME280;4746;35.664;139.738;2023-05-13T10:05:56;100694.59;;;22.57;46.26
9415;BME280;4746;35.664;139.738;2023-05-13T10:08:26;100710.28;;;22.57;46.85
9415;BME280;4746;35.664;139.738;2023-05-13T10:10:55;100711.19;;;22.56;46.46
9415;BME280;4746;35.664;139.738;2023-05-13T10:13:28;100717.34;;;22.55;46.30
9415;BME280;4746;35.664;139.738;2023-05-13T10:15:58;100722.69;;;22.50;46.62
9415;BME280;4746;35.664;139.738;2023-05-13T10:18:27;100709.72;;;22.47;46.16
9415;BME280;4746;35.664;139.738;2023-05-13T10:20:54;100709.69;;;22.49;46.43
9415;BME280;4746;35.664;139.738;2023-05-13T10:23:23;100714.00;;;22.50;46.26
9415;BME280;4746;35.664;139.738;2023-05-13T10:25:52;100719.13;;;22.53;46.55
9415;BME280;4746;35.664;139.738;2023-05-13T10:28:22;100710.47;;;22.51;46.11
9415;BME280;4746;35.664;139.738;2023-05-13T10:30:51;100709.63;;;22.50;46.35
9415;BME280;4746;35.664;139.738;2023-05-13T10:33:19;100722.75;;;22.49;46.64
9415;BME280;4746;35.664;139.738;2023-05-13T10:39:47;100713.91;;;22.53;46.19
9415;BME280;4746;35.664;139.738;2023-05-13T10:42:40;100724.34;;;22.53;46.18
9415;BME280;4746;35.664;139.738;2023-05-13T10:45:10;100729.84;;;22.45;46.05
9415;BME280;4746;35.664;139.738;2023-05-13T10:47:38;100726.34;;;22.45;45.99
9415;BME280;4746;35.664;139.738;2023-05-13T10:50:24;100735.75;;;22.50;45.82
9415;BME280;4746;35.664;139.738;2023-05-13T10:52:56;100741.19;;;22.44;46.34
9415;BME280;4746;35.664;139.738;2023-05-13T10:55:26;100731.69;;;22.42;46.50
9415;BME280;4746;35.664;139.738;2023-05-13T10:58:07;100745.53;;;22.44;46.03
9415;BME280;4746;35.664;139.738;2023-05-13T11:00:36;100733.59;;;22.37;45.98
9415;BME280;4746;35.664;139.738;2023-05-13T11:06:00;100749.97;;;22.42;46.51
9415;BME280;4746;35.664;139.738;2023-05-13T11:08:43;100748.25;;;22.41;46.16
9415;BME280;4746;35.664;139.738;2023-05-13T11:11:29;100750.88;;;22.41;46.45
9415;BME280;4746;35.664;139.738;2023-05-13T11:14:19;100745.66;;;22.41;45.94
9415;BME280;4746;35.664;139.738;2023-05-13T11:17:16;100750.88;;;22.41;46.28
9415;BME280;4746;35.664;139.738;2023-05-13T11:19:50;100756.19;;;22.38;46.27
9415;BME280;4746;35.664;139.738;2023-05-13T11:22:23;100754.50;;;22.37;46.41
9415;BME280;4746;35.664;139.738;2023-05-13T11:25:12;100768.34;;;22.39;46.30
9415;BME280;4746;35.664;139.738;2023-05-13T11:27:41;100770.25;;;22.34;46.20
9415;BME280;4746;35.664;139.738;2023-05-13T11:30:26;100785.84;;;22.37;45.85
9415;BME280;4746;35.664;139.738;2023-05-13T11:32:58;100775.47;;;22.34;45.91
9415;BME280;4746;35.664;139.738;2023-05-13T11:35:31;100780.69;;;22.34;46.34
9415;BME280;4746;35.664;139.738;2023-05-13T11:38:03;100773.69;;;22.36;46.35
9415;BME280;4746;35.664;139.738;2023-05-13T11:40:34;100767.63;;;22.34;46.26
9415;BME280;4746;35.664;139.738;2023-05-13T11:43:03;100766.78;;;22.34;46.19
9415;BME280;4746;35.664;139.738;2023-05-13T11:45:34;100767.69;;;22.33;46.25
9415;BME280;4746;35.664;139.738;2023-05-13T11:48:21;100780.56;;;22.38;46.27
9415;BME280;4746;35.664;139.738;2023-05-13T11:50:56;100761.50;;;22.35;46.18
9415;BME280;4746;35.664;139.738;2023-05-13T11:53:25;100766.78;;;22.34;46.66
9415;BME280;4746;35.664;139.738;2023-05-13T11:55:53;100778.97;;;22.33;46.18
9415;BME280;4746;35.664;139.738;2023-05-13T11:58:21;100778.09;;;22.34;46.26
9415;BME280;4746;35.664;139.738;2023-05-13T12:00:49;100772.06;;;22.32;46.28
9415;BME280;4746;35.664;139.738;2023-05-13T12:03:17;100765.91;;;22.33;46.31
9415;BME280;4746;35.664;139.738;2023-05-13T12:05:45;100775.47;;;22.34;46.12
9415;BME280;4746;35.664;139.738;2023-05-13T12:08:12;100765.84;;;22.36;45.97
9415;BME280;4746;35.664;139.738;2023-05-13T12:10:44;100777.06;;;22.39;45.83
9415;BME280;4746;35.664;139.738;2023-05-13T12:13:12;100756.09;;;22.41;46.21
9415;BME280;4746;35.664;139.738;2023-05-13T12:15:40;100761.31;;;22.41;45.68
9415;BME280;4746;35.664;139.738;2023-05-13T12:18:11;100770.06;;;22.40;45.52
9415;BME280;4746;35.664;139.738;2023-05-13T12:20:38;100764.06;;;22.37;45.68
9415;BME280;4746;35.664;139.738;2023-05-13T12:23:06;100771.84;;;22.38;45.47
9415;BME280;4746;35.664;139.738;2023-05-13T12:25:43;100774.31;;;22.42;45.91
9415;BME280;4746;35.664;139.738;2023-05-13T12:28:26;100775.13;;;22.44;45.36
9415;BME280;4746;35.664;139.738;2023-05-13T12:33:56;100769.84;;;22.46;45.06
9415;BME280;4746;35.664;139.738;2023-05-13T12:36:30;100765.53;;;22.45;45.35
9415;BME280;4746;35.664;139.738;2023-05-13T12:39:08;100754.31;;;22.41;45.36
9415;BME280;4746;35.664;139.738;2023-05-13T12:41:50;100768.25;;;22.42;45.77
9415;BME280;4746;35.664;139.738;2023-05-13T12:44:21;100770.94;;;22.39;45.56
9415;BME280;4746;35.664;139.738;2023-05-13T12:46:53;100777.00;;;22.41;45.57
9415;BME280;4746;35.664;139.738;2023-05-13T12:49:24;100773.47;;;22.42;45.42
9415;BME280;4746;35.664;139.738;2023-05-13T12:52:05;100769.03;;;22.45;45.44
9415;BME280;4746;35.664;139.738;2023-05-13T12:54:33;100763.13;;;22.39;45.35
9415;BME280;4746;35.664;139.738;2023-05-13T12:57:10;100757.63;;;22.48;45.23
9415;BME280;4746;35.664;139.738;2023-05-13T12:59:37;100753.34;;;22.45;45.32
9415;BME280;4746;35.664;139.738;2023-05-13T13:02:06;100748.16;;;22.44;45.20
9415;BME280;4746;35.664;139.738;2023-05-13T13:04:35;100742.13;;;22.42;45.05
9415;BME280;4746;35.664;139.738;2023-05-13T13:07:02;100744.69;;;22.43;45.20
9415;BME280;4746;35.664;139.738;2023-05-13T13:09:32;100739.53;;;22.42;44.90
9415;BME280;4746;35.664;139.738;2023-05-13T13:11:59;100742.13;;;22.42;45.29
9415;BME280;4746;35.664;139.738;2023-05-13T13:14:27;100739.53;;;22.42;45.82
9415;BME280;4746;35.664;139.738;2023-05-13T13:16:54;100733.59;;;22.37;46.10
9415;BME280;4746;35.664;139.738;2023-05-13T13:19:22;100741.25;;;22.43;46.18
9415;BME280;4746;35.664;139.738;2023-05-13T13:21:49;100741.13;;;22.46;46.22